Aérodrome :
LOGIN :

S'inscrire | Disclaimer

   EN    FR    IT 

 










Légende :    VFR   VFR Marginal   IFR   IFR Intensif   IFR Très Intensif
Visi : 
Plafond : 
>= 8 km
>= 3000ft
5 à 8 km
1000 à 3000 ft
1500m à 5 km
500 à 1000 ft
800 à 1500m
200 à 500 ft
< 800m
< 200 ft
Symboles :   Orages  Brouillard  Fortes neiges  Fortes précipitations  Vent > 20 kt
SIGMETs :   Divers  Orages  Givrage  Turbulence  Onde Orograph.  Cendres Volcan.






- Altitude de l'aérodrome : 622 ft
- Code IATA : BRS


EGGD - Bristol Int.

DERNIER METAR :
  • 042020Z AUTO 21010KT 9999 -RA FEW022 SCT027 BKN031 03/01 Q0978

METARs EXPIRÉS :
  • 041950Z AUTO 21011KT 180V240 9999 SCT009 BKN025 03/02 Q0979
  • 041920Z AUTO 23012KT 9999 SCT005 BKN009 03/03 Q0979
  • 041850Z AUTO 23010KT 9999 FEW012 BKN017 04/03 Q0979
  • 041820Z AUTO 26013KT 9999 -RA SCT020 BKN027 BKN043 04/02 Q0979
  • 041750Z AUTO 26013KT 9999 SCT025 BKN034 05/01 Q0979
  • 041720Z AUTO 26015KT 9999 SCT022 OVC034 05/01 Q0979

TAF AMD TAF EGGD
Valide du 04 à 19h jusqu'au 05 à 18h UTC


041959Z 0419/0518 20012KT 9999 SCT006
TEMPO 0419/0511 6000 SHRA RADZ BKN004
PROB30
TEMPO 0500/0506 1200 +RA BR BKN001
BECMG 0503/0506 12012KT
BECMG 0506/0509 BKN012
PROB30
TEMPO 0506/0510 3000 +RA BR BKN004
BECMG 0509/0512 06009KT SCT020
ATIS : +44 1275 473 666



MET'MAP, la Météo Aéronautique d'un coup d'oeil ! - Copyright ORBIFLY Décembre 2007 - Disclaimer

ORBIFLY MET'MAP TEAM :

Programmation & Développement : Alexandra Zaïnal
Sur une idée originale de : Baudouin d'Aumeries
Assistance à la programmation : Marc-Olivier Méhu
Soutien technique & logistique : Manuel Goepfert

Contact : metmap@orbifly.com




SOURCES & CREDITS :

   NOAA